createdAt,value
2022-08-22T00:00:31.146Z,63.45
2022-08-22T00:01:31.139Z,63.54
2022-08-22T00:02:31.200Z,63.14
2022-08-22T00:02:44.823Z,51.69
2022-08-22T00:02:54.176Z,54.12
2022-08-22T00:02:56.790Z,55.18
2022-08-22T00:03:00.025Z,53.80
2022-08-22T00:03:09.767Z,53.22
2022-08-22T00:03:12.559Z,57.64
2022-08-22T00:03:31.222Z,62.94
2022-08-22T00:04:33.969Z,62.84
2022-08-22T00:05:31.091Z,62.84
2022-08-22T00:06:31.151Z,63.34
2022-08-22T00:07:31.074Z,62.84
2022-08-22T00:08:31.078Z,62.84
2022-08-22T00:09:31.049Z,60.72
2022-08-22T00:10:31.058Z,62.54
2022-08-22T00:11:31.872Z,62.64
2022-08-22T00:12:31.025Z,61.73
2022-08-22T00:13:31.053Z,61.80
2022-08-22T00:14:31.008Z,61.60
2022-08-22T00:15:42.625Z,61.23
2022-08-22T00:16:31.987Z,61.80
2022-08-22T00:17:30.976Z,61.80
2022-08-22T00:18:30.993Z,61.70
2022-08-22T00:19:30.958Z,62.01
2022-08-22T00:20:30.944Z,61.80
2022-08-22T00:21:30.936Z,61.80
2022-08-22T00:22:30.926Z,61.80
2022-08-22T00:23:30.919Z,62.10
2022-08-22T00:24:30.926Z,62.01
2022-08-22T00:25:30.899Z,62.10
2022-08-22T00:26:30.891Z,61.80
2022-08-22T00:27:30.878Z,62.71
2022-08-22T00:28:30.880Z,62.71
2022-08-22T00:29:30.872Z,62.41
2022-08-22T00:30:30.850Z,61.90
2022-08-22T00:31:30.842Z,61.70
2022-08-22T00:32:30.831Z,62.84
2022-08-22T00:33:30.816Z,62.91
2022-08-22T00:34:30.840Z,63.01
2022-08-22T00:35:30.803Z,63.11
2022-08-22T00:36:30.806Z,62.54
2022-08-22T00:37:30.785Z,62.30
2022-08-22T00:38:30.770Z,61.90
2022-08-22T00:39:30.792Z,62.94
2022-08-22T00:40:30.751Z,62.94
2022-08-22T00:41:30.738Z,63.01
2022-08-22T00:42:32.112Z,63.34
2022-08-22T00:43:30.709Z,62.74
2022-08-22T00:44:30.711Z,63.14
2022-08-22T00:45:30.715Z,63.45
2022-08-22T00:46:30.695Z,62.94
2022-08-22T00:47:30.686Z,62.74
2022-08-22T00:48:30.672Z,63.14
2022-08-22T00:49:30.705Z,62.84
2022-08-22T00:50:30.668Z,63.04
2022-08-22T00:51:30.641Z,62.64
2022-08-22T00:52:30.635Z,63.04
2022-08-22T00:53:30.673Z,62.54
2022-08-22T00:54:30.614Z,61.73
2022-08-22T00:55:33.891Z,62.64
2022-08-22T00:56:30.591Z,62.44
2022-08-22T00:57:30.589Z,62.54
2022-08-22T00:58:30.574Z,62.44
2022-08-22T00:59:30.563Z,62.84
2022-08-22T01:00:30.581Z,63.17
2022-08-22T01:01:30.562Z,62.77
2022-08-22T01:02:30.532Z,62.94
2022-08-22T01:03:30.528Z,63.07
2022-08-22T01:04:30.517Z,62.97
2022-08-22T01:05:30.502Z,62.84
2022-08-22T01:06:30.511Z,62.94
2022-08-22T01:07:37.857Z,62.54
2022-08-22T01:08:31.472Z,62.57
2022-08-22T01:09:30.467Z,63.81
2022-08-22T01:10:30.453Z,63.81
2022-08-22T01:11:30.461Z,64.07
2022-08-22T01:12:30.438Z,63.78
2022-08-22T01:13:30.431Z,63.70
2022-08-22T01:14:34.585Z,63.78
2022-08-22T01:15:30.406Z,63.87
2022-08-22T01:16:30.425Z,63.78
2022-08-22T01:17:30.386Z,63.57
2022-08-22T01:18:30.376Z,64.28
2022-08-22T01:19:30.366Z,64.07
2022-08-22T01:20:30.356Z,64.07
2022-08-22T01:21:30.379Z,63.98
2022-08-22T01:22:30.348Z,64.18
2022-08-22T01:23:30.331Z,64.69
2022-08-22T01:24:30.320Z,64.61
2022-08-22T01:25:30.312Z,64.61
2022-08-22T01:26:30.298Z,64.81
2022-08-22T01:27:30.311Z,64.51
2022-08-22T01:28:30.280Z,64.81
2022-08-22T01:29:30.273Z,64.61
2022-08-22T01:30:30.260Z,64.81
2022-08-22T01:31:30.252Z,64.72
2022-08-22T01:32:30.261Z,64.61
2022-08-22T01:33:30.232Z,64.81
2022-08-22T01:34:30.219Z,64.84
2022-08-22T01:35:30.207Z,65.72
2022-08-22T01:36:30.204Z,65.42
2022-08-22T01:37:30.227Z,65.55
2022-08-22T01:38:30.183Z,65.85
2022-08-22T01:39:30.173Z,65.05
2022-08-22T01:40:30.196Z,65.75
2022-08-22T01:41:31.154Z,65.45
2022-08-22T01:42:30.186Z,65.55
2022-08-22T01:43:58.975Z,65.35
2022-08-22T01:44:31.127Z,65.45
2022-08-22T01:45:30.118Z,65.55
2022-08-22T01:46:30.102Z,65.55
2022-08-22T01:47:30.921Z,65.25
2022-08-22T01:48:31.106Z,65.95
2022-08-22T01:49:30.077Z,65.55
2022-08-22T01:50:30.067Z,65.85
2022-08-22T01:51:30.056Z,65.55
2022-08-22T01:52:30.044Z,65.55
2022-08-22T01:53:30.050Z,66.05
2022-08-22T01:54:30.026Z,65.95
2022-08-22T01:55:30.018Z,65.55
2022-08-22T01:56:30.005Z,65.55
2022-08-22T01:57:30.000Z,65.25
2022-08-22T01:58:30.063Z,65.65
2022-08-22T01:59:34.109Z,65.45
2022-08-22T02:00:35.513Z,65.25
2022-08-22T02:01:30.959Z,65.75
2022-08-22T02:03:01.845Z,65.45
2022-08-22T02:03:29.970Z,66.29
2022-08-22T02:04:29.927Z,66.16
2022-08-22T02:05:29.907Z,65.48
2022-08-22T02:06:30.912Z,65.38
2022-08-22T02:07:32.135Z,65.05
2022-08-22T02:08:29.883Z,66.08
2022-08-22T02:09:30.894Z,66.39
2022-08-22T02:10:29.871Z,66.59
2022-08-22T02:11:29.865Z,67.23
2022-08-22T02:12:29.852Z,66.93
2022-08-22T02:13:29.840Z,66.93
2022-08-22T02:14:29.864Z,66.79
2022-08-22T02:15:29.826Z,66.72
2022-08-22T02:16:29.813Z,67.13
2022-08-22T02:17:29.801Z,66.93
2022-08-22T02:18:29.797Z,67.02
2022-08-22T02:19:29.815Z,67.02
2022-08-22T02:20:29.778Z,66.82
2022-08-22T02:21:29.768Z,67.02
2022-08-22T02:22:29.759Z,67.13
2022-08-22T02:23:29.747Z,66.72
2022-08-22T02:24:29.738Z,67.13
2022-08-22T02:25:29.748Z,67.02
2022-08-22T02:26:29.719Z,67.13
2022-08-22T02:27:31.365Z,67.13
2022-08-22T02:28:29.699Z,66.82
2022-08-22T02:29:29.688Z,67.02
2022-08-22T02:30:29.709Z,66.93
2022-08-22T02:31:29.665Z,66.82
2022-08-22T02:32:29.664Z,67.23
2022-08-22T02:33:29.656Z,67.43
2022-08-22T02:34:29.645Z,67.63
2022-08-22T02:35:29.676Z,67.83
2022-08-22T02:36:29.625Z,68.44
2022-08-22T02:37:29.613Z,68.33
2022-08-22T02:38:29.604Z,67.83
2022-08-22T02:39:29.598Z,67.63
2022-08-22T02:40:29.583Z,67.73
2022-08-22T02:41:30.928Z,67.43
2022-08-22T02:42:29.566Z,66.62
2022-08-22T02:43:29.557Z,66.72
2022-08-22T02:44:29.550Z,67.02
2022-08-22T02:45:29.540Z,66.93
2022-08-22T02:46:29.571Z,67.13
2022-08-22T02:47:29.518Z,66.62
2022-08-22T02:48:29.508Z,67.53
2022-08-22T02:49:29.502Z,67.73
2022-08-22T02:50:29.488Z,67.83
2022-08-22T02:51:29.536Z,68.33
2022-08-22T02:52:29.495Z,68.54
2022-08-22T02:53:29.459Z,68.54
2022-08-22T02:54:29.448Z,69.55
2022-08-22T02:55:29.438Z,68.37
2022-08-22T02:56:29.428Z,68.64
2022-08-22T02:57:29.435Z,68.77
2022-08-22T02:58:29.407Z,68.47
2022-08-22T02:59:29.395Z,69.68
2022-08-22T03:00:32.725Z,69.68
2022-08-22T03:01:29.380Z,69.18
2022-08-22T03:02:29.384Z,69.08
2022-08-22T03:03:29.366Z,69.08
2022-08-22T03:04:29.352Z,68.98
2022-08-22T03:05:29.344Z,69.38
2022-08-22T03:06:29.337Z,69.78
2022-08-22T03:07:29.340Z,68.98
2022-08-22T03:08:29.386Z,68.87
2022-08-22T03:09:29.306Z,69.18
2022-08-22T03:10:29.293Z,69.98
2022-08-22T03:11:29.289Z,69.62
2022-08-22T03:12:29.321Z,70.19
2022-08-22T03:13:29.269Z,70.22
2022-08-22T03:14:29.262Z,71.33
2022-08-22T03:15:29.249Z,70.83
2022-08-22T03:16:29.241Z,70.83
2022-08-22T03:17:29.265Z,71.23
2022-08-22T03:18:29.223Z,71.84
2022-08-22T03:19:29.207Z,71.53
2022-08-22T03:20:29.227Z,70.62
2022-08-22T03:21:29.192Z,70.83
2022-08-22T03:22:29.180Z,71.03
2022-08-22T03:23:29.194Z,70.83
2022-08-22T03:24:29.162Z,70.62
2022-08-22T03:25:29.156Z,70.83
2022-08-22T03:26:29.146Z,70.86
2022-08-22T03:27:32.410Z,70.62
2022-08-22T03:28:29.142Z,70.96
2022-08-22T03:29:29.117Z,71.67
2022-08-22T03:30:29.103Z,70.86
2022-08-22T03:31:29.095Z,70.96
2022-08-22T03:32:29.085Z,71.57
2022-08-22T03:33:29.091Z,71.87
2022-08-22T03:34:29.069Z,71.17
2022-08-22T03:35:29.056Z,71.57
2022-08-22T03:36:29.049Z,71.26
2022-08-22T03:37:29.038Z,71.67
2022-08-22T03:38:29.043Z,71.87
2022-08-22T03:39:29.022Z,71.67
2022-08-22T03:40:31.451Z,70.86
2022-08-22T03:41:28.999Z,71.06
2022-08-22T03:42:28.993Z,70.96
2022-08-22T03:43:29.001Z,70.76
2022-08-22T03:44:28.968Z,70.96
2022-08-22T03:45:28.950Z,71.26
2022-08-22T03:46:29.948Z,70.96
2022-08-22T03:47:28.936Z,70.86
2022-08-22T03:48:28.948Z,71.87
2022-08-22T03:49:28.921Z,71.70
2022-08-22T03:50:28.910Z,71.09
2022-08-22T03:51:28.894Z,71.30
2022-08-22T03:52:29.891Z,71.70
2022-08-22T03:53:28.929Z,71.00
2022-08-22T03:54:30.491Z,71.00
2022-08-22T03:55:28.863Z,71.60
2022-08-22T03:56:28.883Z,71.91
2022-08-22T03:57:28.835Z,71.00
2022-08-22T03:58:28.856Z,71.84
2022-08-22T03:59:28.817Z,71.50
2022-08-22T04:00:28.875Z,71.09
2022-08-22T04:01:28.800Z,71.91
2022-08-22T04:02:43.652Z,71.91
2022-08-22T04:03:29.820Z,71.94
2022-08-22T04:04:28.768Z,71.53
2022-08-22T04:05:28.756Z,72.14
2022-08-22T04:06:28.747Z,72.34
2022-08-22T04:07:32.400Z,72.44
2022-08-22T04:08:28.729Z,72.44
2022-08-22T04:09:29.183Z,72.55
2022-08-22T04:10:28.711Z,72.85
2022-08-22T04:11:28.697Z,72.55
2022-08-22T04:12:28.712Z,73.05
2022-08-22T04:13:28.680Z,72.75
2022-08-22T04:14:28.684Z,72.65
2022-08-22T04:15:28.658Z,72.65
2022-08-22T04:16:28.654Z,72.55
2022-08-22T04:17:28.637Z,72.24
2022-08-22T04:18:28.628Z,72.44
2022-08-22T04:19:28.646Z,72.34
2022-08-22T04:20:28.608Z,72.24
2022-08-22T04:21:28.597Z,72.34
2022-08-22T04:22:28.587Z,72.24
2022-08-22T04:23:28.679Z,72.65
2022-08-22T04:24:28.609Z,71.94
2022-08-22T04:25:28.556Z,72.14
2022-08-22T04:26:28.556Z,72.65
2022-08-22T04:27:28.537Z,72.65
2022-08-22T04:28:28.528Z,72.65
2022-08-22T04:29:28.517Z,73.05
2022-08-22T04:30:28.520Z,73.05
2022-08-22T04:31:28.492Z,73.05
2022-08-22T04:32:28.485Z,73.19
2022-08-22T04:33:28.475Z,73.19
2022-08-22T04:34:28.464Z,73.46
2022-08-22T04:35:28.469Z,74.20
2022-08-22T04:36:28.447Z,74.71
2022-08-22T04:37:28.438Z,75.01
2022-08-22T04:38:28.426Z,75.92
2022-08-22T04:39:28.420Z,76.63
2022-08-22T04:40:28.435Z,76.56
2022-08-22T04:41:28.398Z,77.24
2022-08-22T04:42:32.806Z,77.03
2022-08-22T04:43:29.382Z,76.32
2022-08-22T04:44:28.366Z,77.98
2022-08-22T04:45:28.394Z,77.78
2022-08-22T04:46:36.653Z,78.59
2022-08-22T04:47:29.342Z,78.83
2022-08-22T04:48:28.328Z,79.54
2022-08-22T04:49:28.318Z,79.58
2022-08-22T04:50:28.310Z,80.29
2022-08-22T04:51:28.315Z,80.49
2022-08-22T04:52:29.556Z,80.39
2022-08-22T04:53:28.281Z,79.85
2022-08-22T04:54:28.268Z,79.94
2022-08-22T04:55:28.256Z,80.01
2022-08-22T04:56:28.263Z,79.91
2022-08-22T04:57:28.244Z,80.01
2022-08-22T04:58:28.225Z,78.75
2022-08-22T04:59:28.220Z,79.10
2022-08-22T05:00:28.224Z,78.86
2022-08-22T05:01:28.255Z,78.55
2022-08-22T05:02:28.191Z,78.45
2022-08-22T05:03:28.172Z,77.34
2022-08-22T05:04:29.170Z,79.06
2022-08-22T05:05:28.185Z,78.86
2022-08-22T05:06:28.179Z,78.75
2022-08-22T05:07:28.138Z,78.35
2022-08-22T05:08:29.130Z,77.71
2022-08-22T05:09:28.120Z,77.71
2022-08-22T05:10:28.113Z,78.11
2022-08-22T05:11:28.129Z,77.50
2022-08-22T05:12:30.068Z,76.79
2022-08-22T05:13:28.082Z,78.01
2022-08-22T05:14:28.072Z,78.15
2022-08-22T05:15:28.081Z,78.39
2022-08-22T05:16:28.052Z,80.01
2022-08-22T05:17:28.056Z,80.01
2022-08-22T05:18:29.626Z,80.21
2022-08-22T05:19:31.913Z,79.10
2022-08-22T05:20:29.018Z,78.86
2022-08-22T05:21:28.004Z,77.64
2022-08-22T05:22:28.011Z,77.71
2022-08-22T05:23:27.983Z,77.71
2022-08-22T05:24:28.278Z,77.26
2022-08-22T05:25:27.961Z,76.46
2022-08-22T05:26:27.953Z,76.02
2022-08-22T05:27:27.956Z,75.92
2022-08-22T05:28:27.934Z,75.81
2022-08-22T05:29:27.922Z,74.97
2022-08-22T05:30:27.913Z,74.26
2022-08-22T05:31:27.898Z,73.75
2022-08-22T05:32:27.916Z,73.46
2022-08-22T05:33:27.881Z,73.02
2022-08-22T05:34:27.873Z,72.71
2022-08-22T05:35:27.859Z,72.61
2022-08-22T05:36:27.877Z,72.51
2022-08-22T05:37:27.879Z,71.97
2022-08-22T05:38:27.835Z,71.77
2022-08-22T05:39:28.024Z,71.87
2022-08-22T05:40:27.816Z,71.47
2022-08-22T05:41:27.799Z,71.57
2022-08-22T05:42:27.821Z,71.47
2022-08-22T05:43:27.780Z,71.37
2022-08-22T05:44:27.774Z,71.94
2022-08-22T05:45:27.761Z,71.57
2022-08-22T05:46:27.756Z,71.57
2022-08-22T05:47:27.746Z,71.87
2022-08-22T05:48:27.753Z,71.87
2022-08-22T05:49:27.726Z,71.47
2022-08-22T05:50:27.713Z,71.97
2022-08-22T05:51:27.704Z,72.17
2022-08-22T05:52:27.697Z,72.48
2022-08-22T05:53:27.705Z,72.41
2022-08-22T05:54:34.493Z,72.07
2022-08-22T05:55:28.666Z,72.27
2022-08-22T05:56:27.656Z,72.24
2022-08-22T05:57:27.648Z,71.03
2022-08-22T05:58:27.649Z,71.10
2022-08-22T05:59:27.625Z,69.85
2022-08-22T06:00:27.614Z,69.62
2022-08-22T06:01:27.642Z,68.98
2022-08-22T06:02:27.616Z,68.21
2022-08-22T06:03:27.609Z,67.41
2022-08-22T06:04:27.581Z,67.34
2022-08-22T06:05:27.565Z,67.84
2022-08-22T06:06:27.559Z,68.31
2022-08-22T06:07:27.553Z,67.71
2022-08-22T06:08:27.569Z,67.21
2022-08-22T06:09:34.936Z,67.07
2022-08-22T06:10:28.517Z,67.61
2022-08-22T06:11:33.668Z,66.10
2022-08-22T06:12:28.526Z,66.67
2022-08-22T06:13:27.506Z,65.97
2022-08-22T06:14:27.483Z,65.73
2022-08-22T06:15:27.472Z,65.50
2022-08-22T06:16:27.464Z,63.87
2022-08-22T06:17:27.455Z,63.31
2022-08-22T06:18:27.461Z,62.90
2022-08-22T06:19:27.437Z,62.70
2022-08-22T06:20:28.787Z,63.53
2022-08-22T06:21:27.473Z,64.64
2022-08-22T06:22:27.582Z,64.14
2022-08-22T06:23:27.440Z,63.57
2022-08-22T06:24:27.397Z,62.74
2022-08-22T06:25:27.385Z,61.11
2022-08-22T06:26:27.369Z,60.35
2022-08-22T06:27:27.363Z,59.65
2022-08-22T06:28:27.383Z,59.25
2022-08-22T06:29:27.346Z,59.65
2022-08-22T06:30:27.431Z,59.88
2022-08-22T06:31:27.323Z,59.88
2022-08-22T06:32:31.546Z,59.68
2022-08-22T06:33:28.335Z,59.45
2022-08-22T06:34:27.297Z,59.35
2022-08-22T06:35:27.287Z,59.85
2022-08-22T06:36:27.276Z,59.55
2022-08-22T06:37:27.266Z,59.35
2022-08-22T06:38:27.257Z,59.02
2022-08-22T06:39:27.264Z,58.99
2022-08-22T06:40:27.311Z,58.69
2022-08-22T06:41:27.227Z,57.89
2022-08-22T06:42:27.214Z,58.12
2022-08-22T06:43:27.211Z,58.42
2022-08-22T06:44:27.210Z,59.12
2022-08-22T06:45:27.188Z,58.62
2022-08-22T06:46:27.188Z,56.24
2022-08-22T06:47:27.170Z,57.64
2022-08-22T06:48:27.155Z,58.06
2022-08-22T06:49:27.167Z,57.57
2022-08-22T06:50:27.145Z,55.69
2022-08-22T06:51:27.130Z,55.21
2022-08-22T06:52:27.126Z,54.94
2022-08-22T06:53:27.112Z,55.54
2022-08-22T06:54:29.440Z,55.58
2022-08-22T06:55:27.092Z,58.19
2022-08-22T06:56:27.099Z,59.27
2022-08-22T06:57:27.071Z,57.93
2022-08-22T06:58:27.063Z,59.36
2022-08-22T06:59:27.078Z,57.84
2022-08-22T07:00:27.051Z,57.48
2022-08-22T07:01:27.134Z,56.73
2022-08-22T07:02:27.021Z,55.38
2022-08-22T07:03:27.012Z,53.34
2022-08-22T07:04:27.018Z,52.49
2022-08-22T07:05:27.006Z,51.54
2022-08-22T07:06:26.982Z,50.40
2022-08-22T07:07:26.972Z,49.69
2022-08-22T07:08:26.962Z,49.37
2022-08-22T07:09:26.967Z,48.30
2022-08-22T07:10:26.957Z,49.29
2022-08-22T07:11:26.931Z,49.51
2022-08-22T07:12:26.918Z,50.16
2022-08-22T07:13:26.911Z,53.24
2022-08-22T07:14:26.941Z,55.21
2022-08-22T07:15:26.893Z,56.36
2022-08-22T07:16:26.888Z,57.88
2022-08-22T07:17:26.873Z,57.41
2022-08-22T07:18:26.860Z,58.54
2022-08-22T07:19:26.886Z,60.29
2022-08-22T07:20:26.973Z,61.52
2022-08-22T07:21:26.836Z,62.25
2022-08-22T07:22:26.824Z,62.45
2022-08-22T07:23:26.811Z,62.58
2022-08-22T07:24:26.821Z,63.18
2022-08-22T07:25:26.813Z,63.18
2022-08-22T07:26:26.786Z,62.98
2022-08-22T07:27:26.780Z,63.51
2022-08-22T07:28:36.518Z,64.72
2022-08-22T07:29:27.768Z,64.84
2022-08-22T07:30:27.835Z,65.45
2022-08-22T07:31:26.741Z,64.45
2022-08-22T07:32:26.730Z,66.25
2022-08-22T07:33:27.281Z,65.65
2022-08-22T07:34:26.709Z,66.48
2022-08-22T07:35:26.715Z,66.38
2022-08-22T07:36:31.436Z,66.48
2022-08-22T07:37:28.682Z,66.28
2022-08-22T07:38:26.670Z,66.38
2022-08-22T07:39:26.663Z,66.75
2022-08-22T07:40:26.760Z,66.02
2022-08-22T07:41:26.639Z,64.69
2022-08-22T07:42:30.106Z,64.36
2022-08-22T07:43:27.619Z,63.62
2022-08-22T07:44:26.612Z,64.32
2022-08-22T07:45:26.619Z,63.09
2022-08-22T07:46:26.592Z,62.79
2022-08-22T07:47:26.813Z,62.46
2022-08-22T07:48:26.647Z,60.27
2022-08-22T07:49:26.571Z,60.83
2022-08-22T07:50:26.586Z,60.03
2022-08-22T07:51:26.549Z,60.80
2022-08-22T07:52:26.534Z,59.91
2022-08-22T07:53:26.531Z,59.61
2022-08-22T07:54:27.329Z,58.98
2022-08-22T07:55:26.544Z,59.21
2022-08-22T07:56:26.509Z,58.81
2022-08-22T07:57:26.488Z,58.01
2022-08-22T07:58:26.478Z,58.61
2022-08-22T07:59:26.466Z,57.17
2022-08-22T08:00:26.463Z,59.86
2022-08-22T08:01:26.494Z,58.59
2022-08-22T08:02:58.336Z,57.79
2022-08-22T08:03:26.439Z,58.12
2022-08-22T08:04:26.425Z,58.32
2022-08-22T08:05:26.416Z,59.05
2022-08-22T08:06:26.424Z,57.85
2022-08-22T08:07:26.397Z,59.02
2022-08-22T08:08:26.385Z,57.45
2022-08-22T08:09:26.373Z,59.15
2022-08-22T08:10:26.369Z,58.95
2022-08-22T08:11:26.374Z,57.45
2022-08-22T08:12:26.349Z,57.52
2022-08-22T08:13:26.339Z,57.82
2022-08-22T08:14:26.329Z,55.92
2022-08-22T08:15:26.942Z,55.32
2022-08-22T08:16:26.357Z,55.72
2022-08-22T08:17:30.136Z,56.52
2022-08-22T08:18:28.293Z,56.09
2022-08-22T08:19:26.279Z,55.79
2022-08-22T08:20:26.270Z,56.99
2022-08-22T08:21:26.288Z,56.29
2022-08-22T08:22:26.251Z,56.62
2022-08-22T08:23:26.241Z,57.52
2022-08-22T08:24:26.234Z,56.29
2022-08-22T08:25:26.219Z,56.29
2022-08-22T08:26:26.209Z,56.37
2022-08-22T08:27:26.217Z,55.64
2022-08-22T08:28:26.195Z,55.91
2022-08-22T08:29:26.181Z,55.11
2022-08-22T08:30:26.181Z,55.51
2022-08-22T08:31:26.167Z,56.51
2022-08-22T08:32:26.169Z,55.71
2022-08-22T08:33:26.891Z,54.61
2022-08-22T08:34:27.119Z,55.91
2022-08-22T08:35:27.125Z,55.91
2022-08-22T08:36:26.113Z,56.11
2022-08-22T08:37:26.136Z,55.62
2022-08-22T08:38:26.099Z,56.59
2022-08-22T08:39:26.089Z,55.49
2022-08-22T08:40:27.075Z,55.51
2022-08-22T08:41:26.067Z,55.99
2022-08-22T08:42:26.087Z,55.49
2022-08-22T08:43:26.043Z,55.91
2022-08-22T08:44:26.044Z,55.79
2022-08-22T08:45:26.031Z,55.69
2022-08-22T08:46:26.256Z,54.96
2022-08-22T08:47:26.008Z,55.16
2022-08-22T08:48:26.033Z,55.76
2022-08-22T08:49:25.988Z,55.63
2022-08-22T08:50:25.981Z,55.24
2022-08-22T08:51:25.964Z,54.64
2022-08-22T08:52:25.968Z,54.71
2022-08-22T08:53:25.967Z,54.31
2022-08-22T08:54:25.930Z,54.61
2022-08-22T08:55:26.929Z,54.51
2022-08-22T08:56:25.921Z,53.69
2022-08-22T08:57:25.908Z,55.11
2022-08-22T08:58:25.929Z,55.11
2022-08-22T08:59:25.890Z,53.89
2022-08-22T09:01:27.547Z,53.39
2022-08-22T09:02:25.868Z,53.19
2022-08-22T09:03:30.939Z,53.59
2022-08-22T09:04:26.849Z,53.49
2022-08-22T09:05:25.842Z,53.99
2022-08-22T09:06:25.831Z,53.69
2022-08-22T09:07:25.817Z,53.39
2022-08-22T09:08:27.611Z,52.79
2022-08-22T09:09:25.812Z,51.47
2022-08-22T09:10:27.365Z,51.37
2022-08-22T09:12:26.766Z,51.77
2022-08-22T09:13:25.749Z,53.06
2022-08-22T09:14:26.320Z,51.77
2022-08-22T09:15:25.739Z,51.87
2022-08-22T09:16:25.730Z,52.67
2022-08-22T09:17:25.719Z,52.27
2022-08-22T09:18:25.711Z,53.06
2022-08-22T09:19:25.717Z,50.08
2022-08-22T09:20:25.693Z,50.18
2022-08-22T09:21:30.723Z,51.27
2022-08-22T09:22:26.675Z,51.05
2022-08-22T09:23:26.661Z,51.25
2022-08-22T09:24:25.664Z,52.27
2022-08-22T09:25:25.646Z,51.12
2022-08-22T09:26:25.634Z,49.53
2022-08-22T09:27:25.620Z,50.03
2022-08-22T09:28:28.360Z,50.03
2022-08-22T09:29:25.617Z,49.71
2022-08-22T09:30:28.880Z,49.91
2022-08-22T09:31:33.222Z,49.63
2022-08-22T09:32:26.590Z,50.03
2022-08-22T09:33:28.164Z,50.23
2022-08-22T09:34:25.630Z,51.12
2022-08-22T09:35:25.543Z,49.63
2022-08-22T09:36:25.534Z,50.63
2022-08-22T09:37:25.535Z,49.31
2022-08-22T09:38:25.515Z,49.80
2022-08-22T09:39:25.566Z,49.21
2022-08-22T09:41:25.491Z,50.31
2022-08-22T09:42:25.480Z,50.23
2022-08-22T09:43:25.470Z,50.63
2022-08-22T09:44:25.468Z,50.13
2022-08-22T09:45:25.476Z,50.01
2022-08-22T09:46:32.009Z,49.41
2022-08-22T09:47:26.425Z,49.80
2022-08-22T09:48:26.594Z,50.40
2022-08-22T09:49:25.410Z,50.31
2022-08-22T09:50:25.427Z,49.58
2022-08-22T09:51:33.078Z,47.99
2022-08-22T09:52:33.224Z,46.88
2022-08-22T09:53:26.372Z,48.57
2022-08-22T09:54:31.691Z,48.44
2022-08-22T09:55:30.584Z,47.16
2022-08-22T09:56:26.346Z,48.44
2022-08-22T09:57:25.338Z,48.44
2022-08-22T09:58:25.328Z,47.45
2022-08-22T09:59:25.315Z,44.37
2022-08-22T10:00:25.764Z,46.86
2022-08-22T10:01:25.426Z,45.56
2022-08-22T10:02:26.287Z,45.47
2022-08-22T10:03:25.280Z,45.94
2022-08-22T10:04:25.271Z,46.73
2022-08-22T10:05:40.912Z,46.64
2022-08-22T10:06:26.306Z,46.02
2022-08-22T10:07:25.242Z,45.72
2022-08-22T10:08:26.510Z,44.33
2022-08-22T10:09:31.493Z,44.25
2022-08-22T10:10:27.211Z,44.73
2022-08-22T10:11:25.202Z,44.43
2022-08-22T10:12:25.221Z,45.15
2022-08-22T10:13:25.181Z,44.67
2022-08-22T10:14:25.174Z,45.01
2022-08-22T10:15:25.163Z,45.79
2022-08-22T10:16:25.182Z,44.49
2022-08-22T10:17:25.189Z,45.49
2022-08-22T10:18:26.189Z,45.47
2022-08-22T10:19:25.128Z,44.45
2022-08-22T10:20:25.113Z,44.33
2022-08-22T10:21:25.103Z,43.74
2022-08-22T10:22:29.942Z,43.32
2022-08-22T10:23:26.109Z,42.11
2022-08-22T10:24:25.702Z,41.44
2022-08-22T10:25:25.109Z,43.40
2022-08-22T10:26:25.642Z,42.29
2022-08-22T10:27:25.043Z,40.80
2022-08-22T10:28:25.080Z,40.39
2022-08-22T10:29:25.023Z,39.10
2022-08-22T10:30:25.015Z,40.33
2022-08-22T10:31:25.001Z,41.02
2022-08-22T10:32:26.948Z,41.52
2022-08-22T10:33:25.021Z,41.79
2022-08-22T10:34:24.980Z,41.12
2022-08-22T10:35:25.585Z,41.53
2022-08-22T10:36:26.270Z,41.83
2022-08-22T10:37:24.954Z,42.35
2022-08-22T10:38:25.070Z,42.33
2022-08-22T10:39:24.953Z,41.44
2022-08-22T10:40:24.962Z,41.02
2022-08-22T10:41:24.915Z,41.08
2022-08-22T10:42:24.909Z,40.88
2022-08-22T10:43:29.161Z,40.76
2022-08-22T10:44:24.914Z,38.59
2022-08-22T10:45:36.177Z,38.68
2022-08-22T10:46:25.870Z,39.26
2022-08-22T10:47:24.861Z,39.91
2022-08-22T10:48:24.942Z,38.90
2022-08-22T10:49:28.301Z,39.56
2022-08-22T10:50:24.826Z,39.46
2022-08-22T10:51:25.824Z,39.77
2022-08-22T10:52:24.809Z,39.26
2022-08-22T10:53:29.466Z,39.14
2022-08-22T10:54:25.835Z,37.96
2022-08-22T10:55:24.785Z,39.43
2022-08-22T10:56:24.778Z,39.42
2022-08-22T10:57:24.770Z,38.81
2022-08-22T10:58:24.796Z,39.46
2022-08-22T10:59:24.765Z,37.05
2022-08-22T11:00:25.612Z,37.53
2022-08-22T11:01:38.462Z,36.72
2022-08-22T11:02:25.827Z,36.53
2022-08-22T11:03:24.999Z,36.92
2022-08-22T11:04:28.276Z,35.23
2022-08-22T11:05:24.709Z,36.10
2022-08-22T11:06:24.679Z,36.97
2022-08-22T11:07:25.672Z,34.78
2022-08-22T11:08:24.669Z,35.16
2022-08-22T11:09:24.674Z,33.08
2022-08-22T11:10:24.669Z,33.44
2022-08-22T11:11:24.636Z,34.03
2022-08-22T11:12:28.211Z,33.43
2022-08-22T11:13:25.619Z,34.54
2022-08-22T11:14:24.623Z,34.93
2022-08-22T11:15:34.510Z,33.64
2022-08-22T11:16:25.595Z,33.04
2022-08-22T11:17:30.252Z,32.64
2022-08-22T11:18:25.572Z,32.54
2022-08-22T11:19:24.644Z,33.02
2022-08-22T11:20:24.578Z,33.61
2022-08-22T11:21:24.544Z,32.92
2022-08-22T11:22:24.536Z,32.61
2022-08-22T11:23:24.524Z,33.50
2022-08-22T11:24:35.480Z,33.41
2022-08-22T11:25:29.227Z,33.00
2022-08-22T11:26:30.108Z,32.86
2022-08-22T11:27:34.523Z,33.18
2022-08-22T11:28:25.507Z,33.46
2022-08-22T11:29:24.488Z,33.28
2022-08-22T11:30:25.846Z,33.28
2022-08-22T11:31:24.533Z,31.58
2022-08-22T11:32:24.445Z,31.58
2022-08-22T11:33:37.429Z,32.92
2022-08-22T11:34:25.643Z,34.53
2022-08-22T11:35:24.416Z,34.48
2022-08-22T11:36:26.331Z,35.76
2022-08-22T11:37:42.839Z,34.87
2022-08-22T11:38:32.658Z,34.28
2022-08-22T11:39:26.411Z,33.92
2022-08-22T11:40:24.432Z,35.04
2022-08-22T11:41:24.365Z,34.84
2022-08-22T11:42:24.352Z,35.63
2022-08-22T11:43:25.351Z,35.52
2022-08-22T11:44:25.501Z,36.60
2022-08-22T11:45:24.368Z,35.22
2022-08-22T11:46:24.325Z,34.82
2022-08-22T11:47:27.297Z,34.84
2022-08-22T11:48:24.305Z,34.86
2022-08-22T11:49:25.566Z,35.94
2022-08-22T11:50:24.311Z,37.29
2022-08-22T11:51:24.807Z,34.82
2022-08-22T11:52:24.273Z,35.00
2022-08-22T11:53:24.272Z,34.31
2022-08-22T11:54:30.863Z,35.12
2022-08-22T11:55:29.610Z,35.31
2022-08-22T11:56:25.233Z,35.00
2022-08-22T11:57:24.226Z,34.31
2022-08-22T11:58:28.729Z,34.82
2022-08-22T11:59:25.217Z,34.39
2022-08-22T12:00:24.199Z,34.87
2022-08-22T12:01:24.224Z,33.61
2022-08-22T12:02:24.199Z,34.23
2022-08-22T12:03:24.171Z,35.22
2022-08-22T12:04:24.162Z,34.72
2022-08-22T12:05:24.616Z,34.95
2022-08-22T12:06:24.194Z,36.32
2022-08-22T12:07:24.142Z,34.43
2022-08-22T12:08:24.121Z,35.14
2022-08-22T12:09:24.118Z,33.75
2022-08-22T12:10:24.109Z,34.76
2022-08-22T12:11:24.162Z,34.82
2022-08-22T12:12:24.090Z,34.23
2022-08-22T12:13:34.133Z,34.86
2022-08-22T12:14:27.037Z,35.78
2022-08-22T12:15:24.515Z,37.60
2022-08-22T12:16:24.057Z,37.49
2022-08-22T12:17:51.103Z,38.01
2022-08-22T12:18:25.149Z,39.10
2022-08-22T12:19:24.023Z,37.68
2022-08-22T12:20:24.009Z,37.08
2022-08-22T12:21:24.003Z,37.28
2022-08-22T12:22:24.010Z,38.31
2022-08-22T12:23:23.981Z,38.34
2022-08-22T12:24:24.994Z,39.95
2022-08-22T12:25:23.971Z,39.37
2022-08-22T12:26:23.958Z,39.28
2022-08-22T12:27:29.210Z,40.19
2022-08-22T12:28:24.942Z,39.57
2022-08-22T12:29:33.497Z,39.17
2022-08-22T12:30:24.925Z,39.28
2022-08-22T12:31:23.909Z,38.09
2022-08-22T12:32:27.869Z,38.26
2022-08-22T12:33:23.893Z,37.24
2022-08-22T12:34:23.885Z,36.98
2022-08-22T12:35:30.085Z,37.95
2022-08-22T12:36:24.865Z,37.77
2022-08-22T12:37:23.897Z,39.07
2022-08-22T12:38:28.148Z,38.24
2022-08-22T12:39:24.862Z,35.83
2022-08-22T12:40:26.332Z,36.62
2022-08-22T12:41:27.745Z,37.22
2022-08-22T12:42:24.893Z,36.61
2022-08-22T12:43:23.803Z,35.91
2022-08-22T12:44:23.791Z,35.02
2022-08-22T12:45:23.784Z,35.61
2022-08-22T12:46:23.775Z,36.31
2022-08-22T12:47:23.791Z,35.89
2022-08-22T12:48:23.803Z,37.26
2022-08-22T12:49:23.749Z,36.06